CheckWX is a tool to help pilots better visualize weather data.  It is not intended as a substitute for an official pre-flight weather briefing.

05:05:59 UTC

KTXK METAR
Texarkana Regional-Webb Field Airport
Texarkana, Arkansas, USA
Current

13 mins ago

KTXK 250453Z AUTO 09005KT 10SM FEW043 18/18 A2982 RMK AO2 SLP093 T01830178
Observed
May-25 @ 04:53 UTC
Wind
  • 090° at 5 KTS
Visibility
Flight Rules
VFR
Cloud Levels
  • Few at 4,300' AGL
Temperature
18°C / 64°F
Dewpoint
18°C / 64°F
Humidity
100%
Altimeter
29.82" Hg
Pressure
1009.82 hPa
Previous

1 hour ago

KTXK 250353Z AUTO 07007KT 10SM FEW003 FEW070 19/18 A2982 RMK AO2 RAB02E16 SLP091 P0000 T01890178
Observed
May-25 @ 03:53 UTC
Wind
  • 070° at 7 KTS
Visibility
Flight Rules
VFR
Cloud Levels
  • Few at 300' AGL
  • Few at 7,000' AGL
Temperature
19°C / 66°F
Dewpoint
18°C / 64°F
Humidity
94%
Altimeter
29.82" Hg
Pressure
1009.82 hPa
Current Rain
0.01"
Previous

2 hours ago

KTXK 250333Z AUTO 07006KT 10SM FEW003 FEW042 19/18 A2985 RMK AO2 RAB02E16 P0000 T01890183
Observed
May-25 @ 03:33 UTC
Wind
  • 070° at 6 KTS
Visibility
Flight Rules
VFR
Cloud Levels
  • Few at 300' AGL
  • Few at 4,200' AGL
Temperature
19°C / 66°F
Dewpoint
18°C / 64°F
Humidity
94%
Altimeter
29.85" Hg
Pressure
1010.82 hPa
Current Rain
0.01"